createdAt,value
2023-03-29T00:00:16.777Z,12.25
2023-03-29T00:02:48.769Z,11.00
2023-03-29T00:05:18.702Z,11.38
2023-03-29T00:07:46.410Z,11.63
2023-03-29T00:10:14.042Z,11.07
2023-03-29T00:12:41.990Z,10.52
2023-03-29T00:15:10.024Z,11.40
2023-03-29T00:17:37.826Z,11.18
2023-03-29T00:20:09.174Z,13.13
2023-03-29T00:22:39.869Z,10.98
2023-03-29T00:25:08.176Z,11.52
2023-03-29T00:27:35.960Z,12.68
2023-03-29T00:30:05.676Z,11.48
2023-03-29T00:32:34.496Z,12.32
2023-03-29T00:35:02.189Z,12.18
2023-03-29T00:37:32.540Z,13.27
2023-03-29T00:40:00.596Z,13.60
2023-03-29T00:42:28.519Z,12.90
2023-03-29T00:45:12.563Z,14.25
2023-03-29T00:47:42.636Z,13.63
2023-03-29T00:50:13.110Z,13.07
2023-03-29T00:52:43.300Z,15.88
2023-03-29T00:55:17.302Z,14.63
2023-03-29T00:57:46.927Z,13.75
2023-03-29T01:00:20.974Z,15.23
2023-03-29T01:02:56.064Z,14.27
2023-03-29T01:05:32.375Z,18.05
2023-03-29T01:08:27.615Z,20.00
2023-03-29T01:11:50.997Z,18.63
2023-03-29T01:14:59.973Z,20.40
2023-03-29T01:17:31.714Z,18.25
2023-03-29T01:20:14.415Z,21.00
2023-03-29T01:22:44.934Z,20.15
2023-03-29T01:25:49.542Z,19.77
2023-03-29T01:28:23.185Z,19.60
2023-03-29T01:31:00.562Z,19.15
2023-03-29T01:33:37.447Z,19.63
2023-03-29T01:36:12.223Z,18.90
2023-03-29T01:38:43.453Z,18.83
2023-03-29T01:41:12.312Z,18.08
2023-03-29T01:43:55.177Z,18.25
2023-03-29T01:46:34.058Z,18.42
2023-03-29T01:49:14.488Z,16.42
2023-03-29T01:51:49.202Z,17.50
2023-03-29T01:54:26.333Z,18.90
2023-03-29T01:56:57.172Z,17.90
2023-03-29T01:59:31.130Z,17.10
2023-03-29T02:02:02.331Z,19.50
2023-03-29T02:04:38.473Z,17.85
2023-03-29T02:07:08.932Z,18.63
2023-03-29T02:09:38.713Z,18.02
2023-03-29T02:12:08.991Z,17.80
2023-03-29T02:14:36.851Z,17.20
2023-03-29T02:17:25.116Z,18.87
2023-03-29T02:19:58.166Z,18.23
2023-03-29T02:22:38.824Z,19.60
2023-03-29T02:27:38.736Z,16.50
2023-03-29T02:30:08.803Z,17.80
2023-03-29T02:32:52.411Z,17.65
2023-03-29T02:35:34.541Z,17.83
2023-03-29T02:38:06.490Z,16.67
2023-03-29T02:40:35.665Z,17.65
2023-03-29T02:43:07.086Z,15.47
2023-03-29T02:45:37.155Z,17.00
2023-03-29T02:48:08.239Z,15.05
2023-03-29T02:50:39.247Z,16.70
2023-03-29T02:53:16.139Z,15.23
2023-03-29T02:55:46.891Z,15.50
2023-03-29T02:58:15.542Z,14.25
2023-03-29T03:00:46.757Z,13.88
2023-03-29T03:03:15.743Z,15.80
2023-03-29T03:08:14.086Z,16.27
2023-03-29T03:10:41.776Z,16.15
2023-03-29T03:13:09.419Z,17.08
2023-03-29T03:15:37.414Z,16.52
2023-03-29T03:18:05.363Z,19.10
2023-03-29T03:20:33.636Z,18.45
2023-03-29T03:23:03.463Z,19.35
2023-03-29T03:25:32.393Z,17.60
2023-03-29T03:28:00.108Z,18.13
2023-03-29T03:30:28.834Z,16.90
2023-03-29T03:32:56.513Z,16.88
2023-03-29T03:35:57.155Z,17.13
2023-03-29T03:38:25.444Z,17.55
2023-03-29T03:41:02.388Z,17.30
2023-03-29T03:43:35.251Z,17.48
2023-03-29T03:46:03.405Z,17.83
2023-03-29T03:48:31.677Z,18.27
2023-03-29T03:51:09.580Z,18.00
2023-03-29T03:53:37.247Z,17.02
2023-03-29T03:56:29.898Z,16.60
2023-03-29T03:59:21.042Z,17.10
2023-03-29T04:01:59.953Z,16.98
2023-03-29T04:04:28.038Z,19.42
2023-03-29T04:07:06.704Z,18.98
2023-03-29T04:09:34.826Z,18.00
2023-03-29T04:12:16.618Z,18.65
2023-03-29T04:14:46.891Z,18.58
2023-03-29T04:17:19.792Z,17.90
2023-03-29T04:19:51.680Z,19.07
2023-03-29T04:22:19.997Z,17.95
2023-03-29T04:24:47.613Z,19.83
2023-03-29T04:27:53.627Z,17.52
2023-03-29T04:30:50.588Z,20.02
2023-03-29T04:33:51.628Z,17.77
2023-03-29T04:36:20.506Z,17.83
2023-03-29T04:38:48.848Z,19.02
2023-03-29T04:41:17.220Z,18.30
2023-03-29T04:43:53.630Z,17.70
2023-03-29T04:46:26.777Z,17.15
2023-03-29T04:49:17.749Z,16.65
2023-03-29T04:51:49.624Z,16.95
2023-03-29T04:54:21.272Z,16.38
2023-03-29T04:57:07.354Z,17.23
2023-03-29T04:59:43.572Z,17.83
2023-03-29T05:02:23.459Z,17.33
2023-03-29T05:04:52.738Z,16.42
2023-03-29T05:07:20.409Z,14.90
2023-03-29T05:09:48.632Z,15.93
2023-03-29T05:12:16.287Z,15.32
2023-03-29T05:14:52.709Z,16.10
2023-03-29T05:17:22.248Z,15.35
2023-03-29T05:19:51.363Z,14.85
2023-03-29T05:22:21.640Z,14.85
2023-03-29T05:24:50.463Z,13.52
2023-03-29T05:27:22.964Z,13.80
2023-03-29T05:30:12.447Z,12.93
2023-03-29T05:32:48.123Z,13.98
2023-03-29T05:35:19.089Z,14.07
2023-03-29T05:37:47.318Z,14.75
2023-03-29T05:40:15.112Z,15.23
2023-03-29T05:43:09.270Z,14.25
2023-03-29T05:45:36.915Z,12.65
2023-03-29T05:48:05.522Z,13.85
2023-03-29T05:50:34.744Z,13.57
2023-03-29T05:53:03.772Z,13.90
2023-03-29T05:55:31.635Z,14.55
2023-03-29T05:57:59.324Z,14.57
2023-03-29T06:00:34.288Z,12.93
2023-03-29T06:03:21.106Z,13.70
2023-03-29T06:06:03.846Z,13.95
2023-03-29T06:08:35.008Z,14.70
2023-03-29T06:11:16.715Z,14.65
2023-03-29T06:14:03.479Z,14.90
2023-03-29T06:16:32.543Z,14.38
2023-03-29T06:19:00.467Z,13.40
2023-03-29T06:21:30.418Z,14.68
2023-03-29T06:23:59.884Z,15.40
2023-03-29T06:26:32.306Z,14.05
2023-03-29T06:29:00.724Z,14.80
2023-03-29T06:31:30.112Z,14.65
2023-03-29T06:33:58.842Z,13.80
2023-03-29T06:36:51.020Z,13.50
2023-03-29T06:39:21.281Z,14.38
2023-03-29T06:42:02.084Z,12.60
2023-03-29T06:45:06.796Z,13.45
2023-03-29T06:47:34.710Z,14.05
2023-03-29T06:50:02.389Z,13.55
2023-03-29T06:52:36.801Z,12.95
2023-03-29T06:55:07.614Z,13.38
2023-03-29T06:57:36.927Z,11.20
2023-03-29T07:00:18.397Z,11.25
2023-03-29T07:03:09.818Z,10.68
2023-03-29T07:05:40.834Z,10.88
2023-03-29T07:08:15.275Z,12.75
2023-03-29T07:11:03.697Z,11.38
2023-03-29T07:14:04.110Z,11.18
2023-03-29T07:16:32.725Z,11.70
2023-03-29T07:19:16.696Z,10.95
2023-03-29T07:21:57.037Z,11.63
2023-03-29T07:24:36.347Z,9.88
2023-03-29T07:27:04.919Z,9.95
2023-03-29T07:29:33.872Z,8.77
2023-03-29T07:32:01.574Z,9.23
2023-03-29T07:34:44.448Z,8.57
2023-03-29T07:37:30.841Z,9.52
2023-03-29T07:40:09.236Z,8.43
2023-03-29T07:43:09.066Z,8.93
2023-03-29T07:45:37.962Z,8.50
2023-03-29T07:48:15.471Z,8.10
2023-03-29T07:50:50.811Z,8.40
2023-03-29T07:53:22.712Z,8.02
2023-03-29T07:55:52.594Z,7.57
2023-03-29T07:58:55.391Z,5.90
2023-03-29T08:01:23.512Z,6.95
2023-03-29T08:04:18.978Z,6.57
2023-03-29T08:07:05.878Z,6.40
2023-03-29T08:09:59.836Z,6.57
2023-03-29T08:13:00.226Z,6.07
2023-03-29T08:15:38.478Z,5.82
2023-03-29T08:18:09.048Z,5.53
2023-03-29T08:20:37.118Z,6.63
2023-03-29T08:23:05.295Z,5.95
2023-03-29T08:25:52.133Z,5.97
2023-03-29T08:28:19.893Z,5.80
2023-03-29T08:33:19.708Z,5.78
2023-03-29T08:35:55.049Z,5.07
2023-03-29T08:38:27.194Z,6.50
2023-03-29T08:40:55.619Z,6.03
2023-03-29T08:43:43.807Z,5.60
2023-03-29T08:46:50.030Z,5.20
2023-03-29T08:49:31.050Z,6.15
2023-03-29T08:52:05.665Z,5.15
2023-03-29T08:54:43.621Z,6.13
2023-03-29T08:57:32.768Z,5.78
2023-03-29T09:00:33.154Z,5.38
2023-03-29T09:03:03.397Z,4.93
2023-03-29T09:05:35.716Z,5.50
2023-03-29T09:08:17.579Z,5.05
2023-03-29T09:11:21.944Z,5.13
2023-03-29T09:14:05.741Z,4.82
2023-03-29T09:16:50.521Z,4.25
2023-03-29T09:19:59.880Z,6.35
2023-03-29T09:22:39.632Z,4.38
2023-03-29T09:25:50.665Z,5.68
2023-03-29T09:28:31.080Z,4.55
2023-03-29T09:31:32.420Z,4.82
2023-03-29T09:34:13.681Z,4.68
2023-03-29T09:37:30.401Z,4.25
2023-03-29T09:39:59.124Z,4.75
2023-03-29T09:42:41.969Z,4.63
2023-03-29T09:45:10.711Z,4.70
2023-03-29T09:47:57.093Z,5.18
2023-03-29T09:50:33.084Z,4.80
2023-03-29T09:53:05.467Z,3.72
2023-03-29T09:55:40.257Z,4.75
2023-03-29T09:58:31.061Z,4.55
2023-03-29T10:01:01.531Z,5.15
2023-03-29T10:06:09.703Z,4.10
2023-03-29T10:11:14.877Z,4.47
2023-03-29T10:13:49.256Z,4.45
2023-03-29T10:16:22.092Z,4.32
2023-03-29T10:18:50.397Z,5.32
2023-03-29T10:21:22.186Z,3.90
2023-03-29T10:23:56.874Z,4.50
2023-03-29T10:26:27.944Z,5.72
2023-03-29T10:28:57.595Z,4.47
2023-03-29T10:31:25.880Z,4.85
2023-03-29T10:33:56.240Z,4.32
2023-03-29T10:36:26.934Z,4.38
2023-03-29T10:38:58.581Z,3.93
2023-03-29T10:43:57.876Z,4.18
2023-03-29T10:46:43.974Z,3.72
2023-03-29T10:49:19.411Z,3.78
2023-03-29T10:51:51.884Z,4.07
2023-03-29T10:54:24.152Z,4.45
2023-03-29T10:56:59.156Z,4.78
2023-03-29T10:59:29.888Z,3.70
2023-03-29T11:02:15.508Z,3.92
2023-03-29T11:05:09.088Z,3.83
2023-03-29T11:08:04.547Z,3.38
2023-03-29T11:10:38.564Z,4.03
2023-03-29T11:13:24.512Z,3.90
2023-03-29T11:16:18.347Z,3.70
2023-03-29T11:19:13.472Z,3.88
2023-03-29T11:21:59.140Z,3.65
2023-03-29T11:24:43.412Z,4.18
2023-03-29T11:27:27.409Z,3.95
2023-03-29T11:30:08.692Z,3.53
2023-03-29T11:32:42.797Z,5.03
2023-03-29T11:35:42.789Z,3.72
2023-03-29T11:38:19.244Z,3.88
2023-03-29T11:40:58.686Z,3.67
2023-03-29T11:43:58.625Z,3.97
2023-03-29T11:46:39.901Z,3.40
2023-03-29T11:49:18.377Z,3.67
2023-03-29T11:51:58.916Z,3.35
2023-03-29T11:54:45.503Z,3.75
2023-03-29T11:57:26.278Z,3.60
2023-03-29T11:59:53.916Z,2.70
2023-03-29T12:02:50.931Z,2.90
2023-03-29T12:05:33.852Z,2.95
2023-03-29T12:08:10.318Z,2.42
2023-03-29T12:10:46.321Z,2.72
2023-03-29T12:13:26.663Z,2.90
2023-03-29T12:16:15.051Z,2.83
2023-03-29T12:18:48.709Z,2.33
2023-03-29T12:21:22.351Z,2.47
2023-03-29T12:23:52.141Z,2.30
2023-03-29T12:27:11.768Z,2.60
2023-03-29T12:29:39.355Z,3.40
2023-03-29T12:32:28.304Z,2.90
2023-03-29T12:35:25.897Z,2.63
2023-03-29T12:38:30.560Z,2.33
2023-03-29T12:41:23.223Z,2.38
2023-03-29T12:44:24.556Z,2.17
2023-03-29T12:47:04.261Z,2.20
2023-03-29T12:49:38.186Z,2.13
2023-03-29T12:52:29.930Z,2.08
2023-03-29T12:55:00.283Z,1.85
2023-03-29T12:58:02.976Z,1.85
2023-03-29T13:00:36.619Z,1.85
2023-03-29T13:03:20.252Z,1.92
2023-03-29T13:06:03.644Z,2.00
2023-03-29T13:08:43.200Z,1.88
2023-03-29T13:11:47.674Z,1.92
2023-03-29T13:14:21.118Z,1.95
2023-03-29T13:16:48.920Z,2.22
2023-03-29T13:19:31.727Z,2.10
2023-03-29T13:22:11.152Z,2.25
2023-03-29T13:24:57.369Z,2.13
2023-03-29T13:27:50.358Z,1.92
2023-03-29T13:30:31.797Z,1.80
2023-03-29T13:33:05.810Z,1.88
2023-03-29T13:35:49.001Z,1.90
2023-03-29T13:38:21.540Z,2.20
2023-03-29T13:41:05.350Z,2.00
2023-03-29T13:43:51.545Z,2.00
2023-03-29T13:46:36.737Z,2.00
2023-03-29T13:49:20.439Z,2.17
2023-03-29T13:52:19.826Z,2.38
2023-03-29T13:54:56.230Z,2.25
2023-03-29T13:57:41.480Z,1.77
2023-03-29T14:00:15.511Z,1.40
2023-03-29T14:02:55.051Z,1.40
2023-03-29T14:05:36.081Z,1.67
2023-03-29T14:08:25.445Z,1.60
2023-03-29T14:10:54.209Z,1.65
2023-03-29T14:13:24.865Z,1.60
2023-03-29T14:16:04.570Z,1.47
2023-03-29T14:18:39.590Z,1.88
2023-03-29T14:21:08.420Z,1.58
2023-03-29T14:23:38.049Z,1.98
2023-03-29T14:26:23.429Z,2.38
2023-03-29T14:28:56.373Z,2.20
2023-03-29T14:31:31.026Z,2.00
2023-03-29T14:34:01.726Z,2.42
2023-03-29T14:36:32.413Z,2.20
2023-03-29T14:39:08.116Z,2.30
2023-03-29T14:41:37.631Z,2.28
2023-03-29T14:44:07.779Z,2.10
2023-03-29T14:46:36.669Z,2.10
2023-03-29T14:49:06.234Z,2.25
2023-03-29T14:51:36.057Z,1.90
2023-03-29T14:54:05.620Z,2.30
2023-03-29T14:56:34.017Z,2.50
2023-03-29T14:59:04.673Z,2.38
2023-03-29T15:01:32.512Z,2.30
2023-03-29T15:04:06.300Z,2.58
2023-03-29T15:06:40.983Z,2.72
2023-03-29T15:09:17.060Z,2.58
2023-03-29T15:11:52.669Z,2.08
2023-03-29T15:14:21.704Z,2.33
2023-03-29T15:16:52.668Z,2.40
2023-03-29T15:19:22.614Z,2.40
2023-03-29T15:21:51.216Z,2.00
2023-03-29T15:24:48.508Z,1.90
2023-03-29T15:27:18.969Z,1.55
2023-03-29T15:29:47.848Z,1.95
2023-03-29T15:32:23.899Z,1.75
2023-03-29T15:35:03.281Z,1.80
2023-03-29T15:37:31.532Z,1.95
2023-03-29T15:39:59.339Z,1.98
2023-03-29T15:42:27.190Z,1.60
2023-03-29T15:44:56.318Z,1.80
2023-03-29T15:47:24.301Z,1.55
2023-03-29T15:49:51.946Z,1.67
2023-03-29T15:52:19.563Z,1.52
2023-03-29T15:54:47.124Z,1.55
2023-03-29T15:57:16.280Z,1.45
2023-03-29T15:59:44.391Z,1.67
2023-03-29T16:02:16.617Z,1.65
2023-03-29T16:04:44.390Z,1.60
2023-03-29T16:07:18.284Z,1.52
2023-03-29T16:09:46.509Z,1.58
2023-03-29T16:12:16.253Z,1.75
2023-03-29T16:14:43.974Z,1.77
2023-03-29T16:17:12.384Z,1.60
2023-03-29T16:19:40.075Z,1.50
2023-03-29T16:22:07.968Z,2.08
2023-03-29T16:24:36.351Z,1.50
2023-03-29T16:27:04.546Z,1.50
2023-03-29T16:29:32.365Z,1.70
2023-03-29T16:32:00.808Z,1.50
2023-03-29T16:34:28.498Z,1.80
2023-03-29T16:36:56.111Z,1.75
2023-03-29T16:39:23.909Z,2.13
2023-03-29T16:41:52.058Z,1.50
2023-03-29T16:44:23.832Z,2.15
2023-03-29T16:46:57.526Z,1.92
2023-03-29T16:49:25.261Z,1.60
2023-03-29T16:51:52.863Z,1.70
2023-03-29T16:54:20.529Z,1.77
2023-03-29T16:56:48.256Z,1.70
2023-03-29T16:59:16.644Z,1.80
2023-03-29T17:01:44.607Z,2.47
2023-03-29T17:04:12.347Z,1.75
2023-03-29T17:06:39.998Z,1.70
2023-03-29T17:09:07.570Z,1.90
2023-03-29T17:11:36.057Z,1.90
2023-03-29T17:14:03.797Z,2.33
2023-03-29T17:16:31.436Z,1.70
2023-03-29T17:19:02.031Z,1.73
2023-03-29T17:21:29.972Z,1.65
2023-03-29T17:23:57.630Z,1.35
2023-03-29T17:26:26.187Z,1.98
2023-03-29T17:28:53.811Z,1.92
2023-03-29T17:31:21.568Z,1.90
2023-03-29T17:33:52.333Z,1.88
2023-03-29T17:36:24.401Z,2.13
2023-03-29T17:38:55.055Z,2.70
2023-03-29T17:41:23.156Z,2.20
2023-03-29T17:43:51.184Z,2.10
2023-03-29T17:46:23.302Z,2.10
2023-03-29T17:48:52.518Z,1.77
2023-03-29T17:51:20.848Z,2.17
2023-03-29T17:53:48.813Z,2.22
2023-03-29T17:56:17.037Z,2.50
2023-03-29T17:58:44.695Z,2.80
2023-03-29T18:01:13.819Z,2.75
2023-03-29T18:03:42.694Z,2.30
2023-03-29T18:06:11.546Z,2.75
2023-03-29T18:08:39.263Z,2.40
2023-03-29T18:11:12.129Z,2.40
2023-03-29T18:13:40.074Z,2.65
2023-03-29T18:16:09.234Z,2.28
2023-03-29T18:18:38.526Z,2.88
2023-03-29T18:21:10.374Z,2.80
2023-03-29T18:23:41.467Z,2.78
2023-03-29T18:26:10.627Z,2.97
2023-03-29T18:28:39.211Z,2.92
2023-03-29T18:31:07.862Z,2.95
2023-03-29T18:33:37.038Z,3.67
2023-03-29T18:36:10.053Z,2.70
2023-03-29T18:38:40.723Z,2.53
2023-03-29T18:41:08.680Z,2.72
2023-03-29T18:43:39.935Z,3.42
2023-03-29T18:46:08.754Z,3.08
2023-03-29T18:48:39.104Z,3.20
2023-03-29T18:51:08.651Z,3.20
2023-03-29T18:53:39.631Z,3.40
2023-03-29T18:56:10.580Z,3.22
2023-03-29T18:58:39.860Z,3.20
2023-03-29T19:01:10.483Z,3.40
2023-03-29T19:03:41.573Z,3.40
2023-03-29T19:08:44.240Z,3.80
2023-03-29T19:11:15.744Z,5.47
2023-03-29T19:13:52.172Z,5.28
2023-03-29T19:16:23.182Z,6.07
2023-03-29T19:18:52.781Z,4.63
2023-03-29T19:21:21.703Z,5.13
2023-03-29T19:23:53.096Z,5.15
2023-03-29T19:26:21.941Z,4.93
2023-03-29T19:28:50.290Z,5.63
2023-03-29T19:31:18.417Z,5.47
2023-03-29T19:33:46.957Z,5.75
2023-03-29T19:36:15.543Z,4.80
2023-03-29T19:38:45.212Z,6.15
2023-03-29T19:41:13.983Z,5.10
2023-03-29T19:43:43.292Z,5.72
2023-03-29T19:46:13.822Z,5.75
2023-03-29T19:48:42.076Z,6.30
2023-03-29T19:51:10.417Z,5.93
2023-03-29T19:53:41.865Z,7.25
2023-03-29T19:56:11.352Z,8.20
2023-03-29T19:58:39.057Z,6.20
2023-03-29T20:01:07.877Z,6.70
2023-03-29T20:03:36.466Z,5.85
2023-03-29T20:06:05.340Z,6.70
2023-03-29T20:08:33.490Z,6.45
2023-03-29T20:11:04.802Z,6.45
2023-03-29T20:13:38.878Z,6.53
2023-03-29T20:16:08.765Z,5.95
2023-03-29T20:18:40.078Z,6.00
2023-03-29T20:21:08.995Z,5.50
2023-03-29T20:23:36.776Z,6.22
2023-03-29T20:26:04.421Z,5.97
2023-03-29T20:28:32.084Z,5.50
2023-03-29T20:31:07.149Z,5.63
2023-03-29T20:33:35.264Z,5.55
2023-03-29T20:36:04.385Z,5.72
2023-03-29T20:38:33.430Z,5.72
2023-03-29T20:41:04.518Z,5.03
2023-03-29T20:43:37.976Z,4.47
2023-03-29T20:46:15.036Z,4.53
2023-03-29T20:48:53.565Z,4.50
2023-03-29T20:51:28.635Z,4.45
2023-03-29T20:54:02.795Z,4.45
2023-03-29T20:56:40.389Z,4.43
2023-03-29T20:59:12.624Z,5.55
2023-03-29T21:01:42.852Z,6.25
2023-03-29T21:04:11.496Z,5.53
2023-03-29T21:06:39.673Z,5.95
2023-03-29T21:09:07.338Z,5.85
2023-03-29T21:11:35.028Z,5.78
2023-03-29T21:14:02.657Z,5.30
2023-03-29T21:16:31.207Z,5.03
2023-03-29T21:18:59.049Z,5.75
2023-03-29T21:21:26.823Z,6.15
2023-03-29T21:23:54.726Z,5.72
2023-03-29T21:26:23.527Z,4.63
2023-03-29T21:28:51.049Z,4.93
2023-03-29T21:31:19.009Z,4.45
2023-03-29T21:33:46.572Z,4.15
2023-03-29T21:36:14.181Z,5.15
2023-03-29T21:38:41.774Z,4.50
2023-03-29T21:41:10.796Z,4.70
2023-03-29T21:43:39.176Z,4.63
2023-03-29T21:46:07.141Z,4.57
2023-03-29T21:48:35.197Z,4.63
2023-03-29T21:51:03.686Z,5.13
2023-03-29T21:53:31.370Z,4.57
2023-03-29T21:55:58.963Z,5.03
2023-03-29T21:58:26.686Z,6.05
2023-03-29T22:00:56.352Z,5.95
2023-03-29T22:03:23.944Z,6.43
2023-03-29T22:06:03.784Z,6.72
2023-03-29T22:08:31.795Z,6.30
2023-03-29T22:11:08.210Z,6.60
2023-03-29T22:13:36.713Z,6.93
2023-03-29T22:16:05.055Z,6.60
2023-03-29T22:18:46.818Z,7.13
2023-03-29T22:21:18.329Z,6.90
2023-03-29T22:23:51.534Z,7.50
2023-03-29T22:26:23.349Z,7.65
2023-03-29T22:28:51.735Z,6.80
2023-03-29T22:31:21.054Z,6.85
2023-03-29T22:33:49.064Z,6.93
2023-03-29T22:36:19.413Z,6.65
2023-03-29T22:38:48.100Z,6.50
2023-03-29T22:41:17.199Z,7.22
2023-03-29T22:43:45.325Z,7.22
2023-03-29T22:46:14.252Z,5.88
2023-03-29T22:48:41.905Z,5.63
2023-03-29T22:51:09.647Z,5.35
2023-03-29T22:53:37.215Z,6.28
2023-03-29T22:56:07.042Z,5.80
2023-03-29T22:58:35.334Z,6.70
2023-03-29T23:01:03.623Z,6.30
2023-03-29T23:03:31.560Z,7.80
2023-03-29T23:06:03.444Z,7.60
2023-03-29T23:08:32.679Z,6.68
2023-03-29T23:11:01.003Z,6.80
2023-03-29T23:13:29.407Z,6.18
2023-03-29T23:15:59.936Z,6.07
2023-03-29T23:18:29.535Z,6.60
2023-03-29T23:20:58.986Z,6.63
2023-03-29T23:23:28.246Z,7.88
2023-03-29T23:25:56.538Z,6.53
2023-03-29T23:28:27.431Z,6.97
2023-03-29T23:30:56.238Z,7.88
2023-03-29T23:33:25.747Z,8.50
2023-03-29T23:35:54.457Z,5.53
2023-03-29T23:38:22.438Z,5.90
2023-03-29T23:41:02.288Z,4.40
2023-03-29T23:43:33.504Z,4.97
2023-03-29T23:46:03.316Z,4.82
2023-03-29T23:48:31.994Z,4.95
2023-03-29T23:50:59.970Z,4.80
2023-03-29T23:53:29.208Z,4.70
2023-03-29T23:56:01.461Z,4.35
2023-03-29T23:58:34.372Z,2.60
